Time;durP1;ratioP1;P1;durP2;ratioP2;P2;SDS_P1;SDS_P2;PMS_P1;PMS_P2;Temp;Humidity;BMP_temperature;BMP_pressure;BME280_temperature;BME280_humidity;BME280_pressure;Samples;Min_cycle;Max_cycle;Signal;HPM_P1;HPM_P2
2021/08/18 00:01:45;;;;;;;4.35;2.33;;;;;;;;;;5074409;28;20020;-72
2021/08/18 00:04:11;;;;;;;3.45;2.50;;;;;;;;;;5073151;28;20048;-71
2021/08/18 00:06:38;;;;;;;5.18;2.45;;;;;;;;;;5073730;28;20052;-71
2021/08/18 00:09:04;;;;;;;4.43;2.60;;;;;;;;;;5073910;28;20091;-72
2021/08/18 00:11:30;;;;;;;3.20;2.08;;;;;;;;;;5073151;28;20108;-72
2021/08/18 00:13:56;;;;;;;6.07;2.60;;;;;;;;;;5073501;28;20035;-72
2021/08/18 00:16:24;;;;;;;7.03;2.55;;;;;;;;;;5072874;28;20016;-72
2021/08/18 00:18:52;;;;;;;6.63;2.55;;;;;;;;;;5071535;28;20511;-73
2021/08/18 00:21:22;;;;;;;3.53;2.45;;;;;;;;;;5075211;28;20383;-71
2021/08/18 00:23:49;;;;;;;5.70;3.20;;;;;;;;;;5073231;28;20024;-72
2021/08/18 00:26:15;;;;;;;8.93;2.45;;;;;;;;;;5073164;28;20058;-72
2021/08/18 00:28:41;;;;;;;6.13;3.03;;;;;;;;;;5073176;28;20407;-72
2021/08/18 00:31:07;;;;;;;6.30;2.58;;;;;;;;;;5073274;28;20140;-73
2021/08/18 00:33:34;;;;;;;5.57;2.60;;;;;;;;;;5074041;28;20031;-73
2021/08/18 00:36:00;;;;;;;3.55;2.55;;;;;;;;;;5073563;28;20031;-73
2021/08/18 00:38:26;;;;;;;3.90;2.40;;;;;;;;;;5072600;28;20032;-72
2021/08/18 00:40:52;;;;;;;4.68;2.42;;;;;;;;;;5072970;28;20024;-72
2021/08/18 00:43:18;;;;;;;7.13;2.97;;;;;;;;;;5073258;28;20036;-72
2021/08/18 00:45:44;;;;;;;4.78;2.50;;;;;;;;;;5075257;28;20021;-70
2021/08/18 00:48:11;;;;;;;3.47;2.40;;;;;;;;;;5078408;28;20060;-70
2021/08/18 00:50:37;;;;;;;3.83;2.22;;;;;;;;;;5076598;28;20499;-71
2021/08/18 00:53:03;;;;;;;3.67;2.35;;;;;;;;;;5076541;28;20029;-71
2021/08/18 00:55:30;;;;;;;3.60;2.50;;;;;;;;;;5076528;28;20090;-70
2021/08/18 00:57:58;;;;;;;2.30;2.08;;;;;;;;;;5076780;28;20032;-71
2021/08/18 01:00:24;;;;;;;1.80;1.70;;;;;;;;;;5076493;28;20017;-73
2021/08/18 01:02:50;;;;;;;3.72;1.98;;;;;;;;;;5075220;28;20017;-72
2021/08/18 01:05:18;;;;;;;3.38;2.50;;;;;;;;;;5076376;28;20037;-69
2021/08/18 01:07:48;;;;;;;2.35;1.90;;;;;;;;;;5078883;28;20025;-72
2021/08/18 01:10:15;;;;;;;3.88;2.40;;;;;;;;;;5076637;28;20020;-71
2021/08/18 01:12:41;;;;;;;2.55;1.83;;;;;;;;;;5077207;28;20036;-71
2021/08/18 01:15:09;;;;;;;3.28;2.20;;;;;;;;;;5076586;28;20036;-71
2021/08/18 01:17:40;;;;;;;3.10;1.98;;;;;;;;;;5076395;28;20024;-72
2021/08/18 01:20:08;;;;;;;3.67;2.00;;;;;;;;;;5077901;28;20016;-70
2021/08/18 01:22:34;;;;;;;3.63;1.80;;;;;;;;;;5075376;28;20489;-72
2021/08/18 01:25:00;;;;;;;2.30;1.85;;;;;;;;;;5076371;28;20017;-71
2021/08/18 01:27:26;;;;;;;3.95;2.17;;;;;;;;;;5075889;28;20073;-71
2021/08/18 01:29:52;;;;;;;2.97;2.00;;;;;;;;;;5075775;28;20024;-71
2021/08/18 01:32:18;;;;;;;2.40;1.75;;;;;;;;;;5076559;28;20029;-70
2021/08/18 01:34:44;;;;;;;2.63;2.05;;;;;;;;;;5075751;28;20407;-71
2021/08/18 01:37:10;;;;;;;2.20;1.67;;;;;;;;;;5075911;28;20074;-73
2021/08/18 01:39:36;;;;;;;2.15;1.60;;;;;;;;;;5075371;28;20027;-71
2021/08/18 01:42:03;;;;;;;4.05;1.90;;;;;;;;;;5076459;28;20091;-71
2021/08/18 01:44:29;;;;;;;3.33;2.03;;;;;;;;;;5075690;28;20479;-71
2021/08/18 01:46:56;;;;;;;4.57;2.15;;;;;;;;;;5075384;28;20031;-74
2021/08/18 01:49:25;;;;;;;2.42;1.95;;;;;;;;;;5075511;28;20109;-70
2021/08/18 01:51:51;;;;;;;3.65;1.88;;;;;;;;;;5076152;28;20032;-70
2021/08/18 01:54:17;;;;;;;5.55;2.00;;;;;;;;;;5076936;28;20029;-70
2021/08/18 01:56:44;;;;;;;4.22;1.92;;;;;;;;;;5075802;28;20028;-71
2021/08/18 01:59:10;;;;;;;2.58;2.10;;;;;;;;;;5073740;28;20024;-70
2021/08/18 02:01:36;;;;;;;4.43;2.03;;;;;;;;;;5075437;28;20100;-71
2021/08/18 02:04:02;;;;;;;5.30;2.20;;;;;;;;;;5074232;28;20044;-72
2021/08/18 02:06:31;;;;;;;4.22;2.38;;;;;;;;;;5076248;28;20031;-70
2021/08/18 02:08:57;;;;;;;3.50;2.50;;;;;;;;;;5075200;28;20356;-71
2021/08/18 02:11:23;;;;;;;2.90;2.00;;;;;;;;;;5074772;28;20017;-70
2021/08/18 02:13:57;;;;;;;3.13;2.33;;;;;;;;;;5075559;28;20024;-72
2021/08/18 02:16:24;;;;;;;4.85;2.50;;;;;;;;;;5077192;28;20048;-72
2021/08/18 02:18:50;;;;;;;3.95;2.30;;;;;;;;;;5076271;28;20390;-74
2021/08/18 02:21:16;;;;;;;6.65;2.55;;;;;;;;;;5074722;28;20027;-73
2021/08/18 02:23:42;;;;;;;4.45;2.22;;;;;;;;;;5074547;28;20024;-71
2021/08/18 02:26:08;;;;;;;4.60;2.28;;;;;;;;;;5075264;28;20031;-72
2021/08/18 02:28:34;;;;;;;3.33;2.20;;;;;;;;;;5074175;28;20119;-73
2021/08/18 02:31:00;;;;;;;4.85;2.60;;;;;;;;;;5074794;28;20035;-71
2021/08/18 02:33:26;;;;;;;4.15;2.30;;;;;;;;;;5074229;28;20028;-70
2021/08/18 02:35:52;;;;;;;5.10;2.38;;;;;;;;;;5074525;28;20016;-71
2021/08/18 02:38:19;;;;;;;2.47;1.88;;;;;;;;;;5075269;28;20488;-68
2021/08/18 02:40:45;;;;;;;3.15;2.20;;;;;;;;;;5074937;28;20028;-69
2021/08/18 02:43:11;;;;;;;2.53;2.00;;;;;;;;;;5074820;28;20467;-71
2021/08/18 02:45:37;;;;;;;6.15;2.45;;;;;;;;;;5074301;28;20020;-72
2021/08/18 02:48:04;;;;;;;4.25;2.53;;;;;;;;;;5074616;28;20472;-72
2021/08/18 02:50:31;;;;;;;4.05;2.47;;;;;;;;;;5075281;28;20032;-73
2021/08/18 02:52:57;;;;;;;3.97;2.38;;;;;;;;;;5074213;28;20416;-72
2021/08/18 02:55:23;;;;;;;3.38;2.20;;;;;;;;;;5074007;28;20021;-70
2021/08/18 02:57:49;;;;;;;3.95;2.30;;;;;;;;;;5073708;28;20025;-72
2021/08/18 03:00:16;;;;;;;3.53;2.30;;;;;;;;;;5074742;28;20078;-71
2021/08/18 03:02:42;;;;;;;6.45;2.25;;;;;;;;;;5074531;28;20365;-71
2021/08/18 03:05:08;;;;;;;5.05;2.20;;;;;;;;;;5073579;28;20051;-73
2021/08/18 03:07:34;;;;;;;3.40;1.98;;;;;;;;;;5073845;28;20024;-70
2021/08/18 03:10:04;;;;;;;4.05;2.15;;;;;;;;;;5073221;28;20021;-71
2021/08/18 03:12:30;;;;;;;3.83;2.00;;;;;;;;;;5074212;28;20111;-70
2021/08/18 03:14:56;;;;;;;3.00;2.03;;;;;;;;;;5074194;28;20040;-72
2021/08/18 03:17:22;;;;;;;4.25;2.53;;;;;;;;;;5073698;28;20226;-70
2021/08/18 03:19:48;;;;;;;3.13;2.10;;;;;;;;;;5073917;28;20021;-71
2021/08/18 03:22:14;;;;;;;3.10;2.65;;;;;;;;;;5074530;28;20048;-71
2021/08/18 03:24:43;;;;;;;3.70;2.25;;;;;;;;;;5075016;28;20032;-70
2021/08/18 03:27:09;;;;;;;6.30;2.10;;;;;;;;;;5076085;28;20074;-71
2021/08/18 03:29:35;;;;;;;2.90;2.22;;;;;;;;;;5074124;28;20029;-72
2021/08/18 03:32:02;;;;;;;3.08;2.33;;;;;;;;;;5073894;28;20036;-72
2021/08/18 03:34:28;;;;;;;6.25;2.10;;;;;;;;;;5074652;28;20078;-73
2021/08/18 03:36:54;;;;;;;4.70;2.42;;;;;;;;;;5074943;28;20034;-72
2021/08/18 03:39:20;;;;;;;3.78;2.17;;;;;;;;;;5073822;28;20024;-70
2021/08/18 03:41:46;;;;;;;2.45;2.05;;;;;;;;;;5073511;28;20440;-70
2021/08/18 03:44:12;;;;;;;3.58;2.42;;;;;;;;;;5073497;28;20029;-70
2021/08/18 03:46:38;;;;;;;2.88;2.20;;;;;;;;;;5076091;28;20031;-68
2021/08/18 03:49:04;;;;;;;2.92;2.05;;;;;;;;;;5075589;28;20017;-69
2021/08/18 03:51:31;;;;;;;2.90;2.17;;;;;;;;;;5073615;28;20887;-70
2021/08/18 03:53:57;;;;;;;3.30;2.42;;;;;;;;;;5073246;28;20021;-71
2021/08/18 03:56:23;;;;;;;2.65;2.42;;;;;;;;;;5073424;28;20032;-71
2021/08/18 03:58:49;;;;;;;5.80;2.80;;;;;;;;;;5074220;28;20067;-70
2021/08/18 04:01:15;;;;;;;4.70;2.40;;;;;;;;;;5073529;28;20016;-71
2021/08/18 04:03:41;;;;;;;6.25;2.92;;;;;;;;;;5073080;28;20056;-72
2021/08/18 04:06:07;;;;;;;6.22;2.38;;;;;;;;;;5073078;28;20021;-69
2021/08/18 04:08:36;;;;;;;3.88;2.25;;;;;;;;;;5073590;28;20052;-70
2021/08/18 04:11:09;;;;;;;4.07;2.90;;;;;;;;;;5074384;28;20035;-69
2021/08/18 04:13:36;;;;;;;4.00;2.40;;;;;;;;;;5073999;28;20032;-69
2021/08/18 04:16:02;;;;;;;4.22;2.65;;;;;;;;;;5073017;28;20078;-71
2021/08/18 04:18:28;;;;;;;4.90;2.72;;;;;;;;;;5073001;28;20513;-71
2021/08/18 04:20:54;;;;;;;7.50;3.05;;;;;;;;;;5075975;28;20043;-72
2021/08/18 04:23:20;;;;;;;7.25;2.33;;;;;;;;;;5077877;28;20467;-73
2021/08/18 04:25:46;;;;;;;3.22;2.63;;;;;;;;;;5076777;28;20028;-71
2021/08/18 04:28:12;;;;;;;4.35;2.45;;;;;;;;;;5076835;28;20103;-71
2021/08/18 04:30:38;;;;;;;6.13;2.47;;;;;;;;;;5077205;28;20438;-72
2021/08/18 04:33:04;;;;;;;6.35;2.85;;;;;;;;;;5078475;28;20058;-72
2021/08/18 04:35:30;;;;;;;3.92;2.40;;;;;;;;;;5076986;28;20107;-71
2021/08/18 04:37:57;;;;;;;7.55;2.80;;;;;;;;;;5076569;28;20028;-73
2021/08/18 04:40:23;;;;;;;5.15;2.50;;;;;;;;;;5076669;28;20081;-71
2021/08/18 04:42:50;;;;;;;3.75;2.60;;;;;;;;;;5076721;28;20097;-71
2021/08/18 04:45:17;;;;;;;6.22;2.60;;;;;;;;;;5077234;28;20029;-71
2021/08/18 04:47:43;;;;;;;7.10;2.85;;;;;;;;;;5076432;28;20056;-70
2021/08/18 04:50:11;;;;;;;5.47;2.92;;;;;;;;;;5076579;28;20016;-71
2021/08/18 04:52:37;;;;;;;4.70;2.65;;;;;;;;;;5076549;28;20475;-70
2021/08/18 04:55:04;;;;;;;5.93;3.15;;;;;;;;;;5076525;28;20033;-70
2021/08/18 04:57:30;;;;;;;4.72;2.90;;;;;;;;;;5076723;28;20471;-71
2021/08/18 04:59:56;;;;;;;4.82;2.60;;;;;;;;;;5076635;28;20029;-70
2021/08/18 05:02:22;;;;;;;5.13;2.88;;;;;;;;;;5076077;28;20024;-70
2021/08/18 05:04:48;;;;;;;7.00;3.75;;;;;;;;;;5076599;28;20049;-72
2021/08/18 05:07:14;;;;;;;5.18;2.60;;;;;;;;;;5077063;28;20396;-70
2021/08/18 05:09:40;;;;;;;5.35;3.13;;;;;;;;;;5076607;28;20038;-70
2021/08/18 05:12:06;;;;;;;5.75;2.80;;;;;;;;;;5076412;28;20365;-71
2021/08/18 05:14:32;;;;;;;7.38;2.92;;;;;;;;;;5076403;28;20020;-71
2021/08/18 05:16:58;;;;;;;6.78;2.55;;;;;;;;;;5074493;28;20395;-72
2021/08/18 05:19:25;;;;;;;4.15;2.60;;;;;;;;;;5076399;28;20021;-70
2021/08/18 05:21:51;;;;;;;4.75;2.55;;;;;;;;;;5075673;28;20031;-71
2021/08/18 05:24:17;;;;;;;5.78;2.65;;;;;;;;;;5075886;28;20471;-71
2021/08/18 05:26:43;;;;;;;6.53;3.20;;;;;;;;;;5075572;28;20027;-71
2021/08/18 05:29:09;;;;;;;5.30;2.88;;;;;;;;;;5076480;28;20023;-72
2021/08/18 05:31:35;;;;;;;8.75;3.25;;;;;;;;;;5074985;28;20032;-71
2021/08/18 05:34:01;;;;;;;4.45;2.78;;;;;;;;;;5075675;28;20028;-71
2021/08/18 05:36:27;;;;;;;6.47;2.90;;;;;;;;;;5075560;28;20434;-72
2021/08/18 05:38:53;;;;;;;4.60;2.65;;;;;;;;;;5075763;28;20028;-69
2021/08/18 05:41:19;;;;;;;5.28;2.88;;;;;;;;;;5076415;28;20054;-72
2021/08/18 05:43:45;;;;;;;9.93;3.70;;;;;;;;;;5076306;28;20025;-73
2021/08/18 05:46:11;;;;;;;5.43;3.22;;;;;;;;;;5075462;28;20104;-71
2021/08/18 05:48:37;;;;;;;4.68;2.75;;;;;;;;;;5076391;28;20029;-71
2021/08/18 05:51:07;;;;;;;6.55;3.08;;;;;;;;;;5075409;28;20419;-74
2021/08/18 05:53:33;;;;;;;6.32;3.38;;;;;;;;;;5075843;28;20157;-71
2021/08/18 05:55:59;;;;;;;7.18;3.80;;;;;;;;;;5075139;28;20036;-71
2021/08/18 05:58:26;;;;;;;7.75;3.60;;;;;;;;;;5074996;28;20031;-70
2021/08/18 06:00:52;;;;;;;10.77;5.05;;;;;;;;;;5075454;28;20039;-72
2021/08/18 06:03:18;;;;;;;6.50;3.15;;;;;;;;;;5075096;28;20016;-70
2021/08/18 06:05:44;;;;;;;7.07;4.03;;;;;;;;;;5075293;28;20104;-70
2021/08/18 06:08:10;;;;;;;7.28;3.58;;;;;;;;;;5074880;28;20031;-70
2021/08/18 06:10:36;;;;;;;7.68;3.75;;;;;;;;;;5075181;28;20028;-70
2021/08/18 06:13:03;;;;;;;6.72;3.83;;;;;;;;;;5075085;28;20031;-71
2021/08/18 06:15:30;;;;;;;7.72;3.50;;;;;;;;;;5075914;28;20028;-72
2021/08/18 06:17:56;;;;;;;7.72;3.58;;;;;;;;;;5074582;28;20077;-72
2021/08/18 06:20:22;;;;;;;7.05;4.30;;;;;;;;;;5074759;28;20115;-70
2021/08/18 06:22:49;;;;;;;10.57;4.15;;;;;;;;;;5074677;28;20020;-72
2021/08/18 06:25:15;;;;;;;7.38;3.83;;;;;;;;;;5075290;28;20103;-70
2021/08/18 06:27:44;;;;;;;9.73;3.65;;;;;;;;;;5077523;28;20550;-73
2021/08/18 06:30:11;;;;;;;8.13;3.55;;;;;;;;;;5074574;28;20029;-72
2021/08/18 06:32:37;;;;;;;6.20;3.65;;;;;;;;;;5074311;28;20039;-69
2021/08/18 06:35:04;;;;;;;8.82;3.90;;;;;;;;;;5074541;28;20498;-71
2021/08/18 06:37:30;;;;;;;8.27;3.83;;;;;;;;;;5074942;28;20036;-72
2021/08/18 06:39:56;;;;;;;8.45;4.40;;;;;;;;;;5074282;28;20032;-72
2021/08/18 06:42:22;;;;;;;8.02;3.90;;;;;;;;;;5074239;28;20028;-71
2021/08/18 06:44:49;;;;;;;7.00;3.78;;;;;;;;;;5073060;28;20499;-73
2021/08/18 06:47:15;;;;;;;6.68;4.28;;;;;;;;;;5074792;28;20036;-70
2021/08/18 06:49:41;;;;;;;7.28;3.75;;;;;;;;;;5074372;28;20041;-70
2021/08/18 06:52:08;;;;;;;8.40;4.00;;;;;;;;;;5074753;28;20035;-70
2021/08/18 06:54:34;;;;;;;8.70;3.85;;;;;;;;;;5074209;28;20036;-71
2021/08/18 06:57:00;;;;;;;5.30;4.07;;;;;;;;;;5074089;28;20056;-71
2021/08/18 06:59:26;;;;;;;5.97;3.72;;;;;;;;;;5074300;28;20074;-71
2021/08/18 07:01:52;;;;;;;6.32;4.10;;;;;;;;;;5074258;28;20032;-71
2021/08/18 07:04:19;;;;;;;6.47;3.53;;;;;;;;;;5073956;28;20515;-71
2021/08/18 07:06:45;;;;;;;9.15;3.80;;;;;;;;;;5073707;28;20150;-70
2021/08/18 07:09:11;;;;;;;9.93;4.35;;;;;;;;;;5074384;28;20294;-71
2021/08/18 07:11:37;;;;;;;6.30;3.83;;;;;;;;;;5074280;28;20100;-71
2021/08/18 07:14:03;;;;;;;6.53;4.00;;;;;;;;;;5073804;28;20544;-72
2021/08/18 07:16:30;;;;;;;7.68;3.97;;;;;;;;;;5075229;28;20074;-72
2021/08/18 07:18:57;;;;;;;9.68;4.85;;;;;;;;;;5073749;28;20021;-71
2021/08/18 07:21:23;;;;;;;7.95;4.25;;;;;;;;;;5074830;28;20024;-69
2021/08/18 07:23:50;;;;;;;7.97;4.40;;;;;;;;;;5073688;28;20031;-71
2021/08/18 07:26:16;;;;;;;6.32;4.38;;;;;;;;;;5074028;28;20481;-72
2021/08/18 07:28:43;;;;;;;8.98;5.00;;;;;;;;;;5073601;28;20032;-71
2021/08/18 07:31:09;;;;;;;9.57;5.25;;;;;;;;;;5074087;28;20024;-71
2021/08/18 07:33:36;;;;;;;9.20;5.50;;;;;;;;;;5074843;28;20031;-70
2021/08/18 07:36:02;;;;;;;8.68;5.25;;;;;;;;;;5073628;28;20032;-71
2021/08/18 07:38:28;;;;;;;9.00;4.70;;;;;;;;;;5073609;28;20471;-73
2021/08/18 07:40:54;;;;;;;6.35;4.68;;;;;;;;;;5074692;28;20017;-72
2021/08/18 07:43:20;;;;;;;6.93;4.97;;;;;;;;;;5074420;28;20082;-72
2021/08/18 07:45:46;;;;;;;8.80;5.13;;;;;;;;;;5073335;28;20502;-72
2021/08/18 07:48:12;;;;;;;7.80;5.57;;;;;;;;;;5073996;28;20071;-70
2021/08/18 07:50:38;;;;;;;7.65;5.35;;;;;;;;;;5073642;28;20103;-72
2021/08/18 07:53:04;;;;;;;7.03;5.07;;;;;;;;;;5074157;28;20029;-70
2021/08/18 07:55:30;;;;;;;7.05;4.55;;;;;;;;;;5073519;28;20037;-71
2021/08/18 07:57:56;;;;;;;8.45;4.80;;;;;;;;;;5073638;28;20483;-71
2021/08/18 08:00:23;;;;;;;6.65;4.28;;;;;;;;;;5074190;28;20024;-70
2021/08/18 08:02:49;;;;;;;8.20;4.50;;;;;;;;;;5074666;28;20525;-70
2021/08/18 08:05:16;;;;;;;7.32;5.18;;;;;;;;;;5073932;28;20411;-71
2021/08/18 08:07:42;;;;;;;8.00;4.32;;;;;;;;;;5076665;28;20035;-71
2021/08/18 08:10:10;;;;;;;8.32;4.43;;;;;;;;;;5077053;28;20158;-73
2021/08/18 08:12:36;;;;;;;6.28;4.50;;;;;;;;;;5079620;28;20078;-73
2021/08/18 08:15:03;;;;;;;6.32;4.72;;;;;;;;;;5078494;28;20020;-73
2021/08/18 08:17:29;;;;;;;8.25;5.55;;;;;;;;;;5079657;28;20087;-72
2021/08/18 08:19:56;;;;;;;8.38;5.00;;;;;;;;;;5079548;28;20024;-69
2021/08/18 08:22:22;;;;;;;6.25;4.28;;;;;;;;;;5079481;28;20564;-75
2021/08/18 08:24:48;;;;;;;7.28;4.53;;;;;;;;;;5079696;28;20025;-73
2021/08/18 08:27:14;;;;;;;5.35;3.80;;;;;;;;;;5075505;28;20029;-70
2021/08/18 08:29:40;;;;;;;5.60;3.80;;;;;;;;;;5073639;28;20024;-71
2021/08/18 08:32:06;;;;;;;3.58;2.88;;;;;;;;;;5073263;28;20608;-73
2021/08/18 08:34:33;;;;;;;4.15;3.03;;;;;;;;;;5073600;28;20028;-70
2021/08/18 08:36:59;;;;;;;5.93;2.90;;;;;;;;;;5073123;28;20021;-70
2021/08/18 08:39:25;;;;;;;3.05;2.47;;;;;;;;;;5073260;28;20037;-71
2021/08/18 08:41:51;;;;;;;6.13;2.28;;;;;;;;;;5073065;28;20052;-70
2021/08/18 08:44:18;;;;;;;3.05;2.33;;;;;;;;;;5071894;28;20566;-70
2021/08/18 08:46:48;;;;;;;3.40;2.20;;;;;;;;;;5072877;28;20031;-72
2021/08/18 08:49:15;;;;;;;1.90;1.60;;;;;;;;;;5072901;28;20048;-70
2021/08/18 08:51:42;;;;;;;3.92;2.30;;;;;;;;;;5073042;28;20033;-70
2021/08/18 08:54:08;;;;;;;2.55;1.92;;;;;;;;;;5072849;28;20431;-73
2021/08/18 08:56:34;;;;;;;2.55;1.80;;;;;;;;;;5072693;28;20026;-71
2021/08/18 08:59:00;;;;;;;2.25;1.83;;;;;;;;;;5072802;28;20025;-70
2021/08/18 09:01:27;;;;;;;2.08;1.77;;;;;;;;;;5072322;28;20081;-73
2021/08/18 09:03:53;;;;;;;3.25;2.03;;;;;;;;;;5071107;28;20041;-69
2021/08/18 09:06:21;;;;;;;1.85;1.65;;;;;;;;;;5072369;28;20031;-70
2021/08/18 09:08:48;;;;;;;2.60;1.88;;;;;;;;;;5076178;28;20035;-72
2021/08/18 09:11:15;;;;;;;1.70;1.60;;;;;;;;;;5076125;28;20025;-71
2021/08/18 09:13:52;;;;;;;3.15;1.88;;;;;;;;;;5076055;28;20038;-71
2021/08/18 09:16:20;;;;;;;3.05;1.70;;;;;;;;;;5076585;28;20434;-72
2021/08/18 09:18:47;;;;;;;2.83;1.70;;;;;;;;;;5076232;28;20036;-71
2021/08/18 09:21:27;;;;;;;1.90;1.80;;;;;;;;;;5076177;28;20429;-73
2021/08/18 09:24:13;;;;;;;5.60;3.30;;;;;;;;;;5076069;28;20028;-71
2021/08/18 09:26:40;;;;;;;15.00;6.75;;;;;;;;;;5076064;28;20471;-71
2021/08/18 09:29:06;;;;;;;3.58;2.00;;;;;;;;;;5076047;28;20094;-73
2021/08/18 09:31:32;;;;;;;2.72;1.83;;;;;;;;;;5075975;28;20032;-72
2021/08/18 09:33:58;;;;;;;2.10;1.85;;;;;;;;;;5076133;28;20024;-71
2021/08/18 09:36:25;;;;;;;2.53;1.80;;;;;;;;;;5076122;28;20074;-70
2021/08/18 09:38:51;;;;;;;2.00;1.63;;;;;;;;;;5076266;28;20033;-71
2021/08/18 09:41:22;;;;;;;2.03;1.67;;;;;;;;;;5076214;28;20137;-72
2021/08/18 09:43:48;;;;;;;2.40;1.90;;;;;;;;;;5076236;28;20020;-70
2021/08/18 09:46:14;;;;;;;2.72;1.98;;;;;;;;;;5075955;28;20071;-71
2021/08/18 09:48:44;;;;;;;1.98;1.77;;;;;;;;;;5076590;28;20025;-70
2021/08/18 09:51:11;;;;;;;4.65;2.03;;;;;;;;;;5076081;28;20150;-72
2021/08/18 09:53:39;;;;;;;2.20;1.88;;;;;;;;;;5076235;28;20100;-70
2021/08/18 09:56:09;;;;;;;2.85;2.30;;;;;;;;;;5075583;28;20024;-70
2021/08/18 09:58:36;;;;;;;4.47;2.20;;;;;;;;;;5075831;28;20033;-70
2021/08/18 10:01:13;;;;;;;2.50;2.03;;;;;;;;;;5074439;28;20028;-73
2021/08/18 10:03:40;;;;;;;2.90;2.30;;;;;;;;;;5075418;28;20109;-71
2021/08/18 10:06:07;;;;;;;2.20;1.77;;;;;;;;;;5074104;28;20017;-74
2021/08/18 10:08:34;;;;;;;5.05;2.30;;;;;;;;;;5075490;28;20137;-71
2021/08/18 10:11:00;;;;;;;3.35;2.53;;;;;;;;;;5075219;28;20024;-71
2021/08/18 10:13:27;;;;;;;3.03;2.10;;;;;;;;;;5075137;28;20025;-70
2021/08/18 10:15:54;;;;;;;2.50;2.10;;;;;;;;;;5075113;28;20107;-71
2021/08/18 10:18:32;;;;;;;2.67;2.45;;;;;;;;;;5073932;28;20036;-70
2021/08/18 10:21:02;;;;;;;2.45;2.05;;;;;;;;;;5075118;28;20016;-72
2021/08/18 10:23:41;;;;;;;2.50;1.90;;;;;;;;;;5075274;28;20108;-72
2021/08/18 10:26:07;;;;;;;3.83;2.25;;;;;;;;;;5075331;28;20017;-70
2021/08/18 10:28:52;;;;;;;2.58;2.05;;;;;;;;;;5076473;28;20430;-70
2021/08/18 10:31:38;;;;;;;2.30;2.10;;;;;;;;;;5074753;28;20030;-72
2021/08/18 10:34:04;;;;;;;3.47;2.20;;;;;;;;;;5074637;28;20028;-72
2021/08/18 10:36:42;;;;;;;2.10;1.90;;;;;;;;;;5074746;28;20111;-72
2021/08/18 10:42:02;;;;;;;3.33;2.08;;;;;;;;;;5074344;28;20094;-71
2021/08/18 10:44:46;;;;;;;2.95;2.15;;;;;;;;;;5074878;28;20387;-73
2021/08/18 10:47:28;;;;;;;2.83;2.35;;;;;;;;;;5074786;28;20039;-70
2021/08/18 10:50:01;;;;;;;4.32;2.95;;;;;;;;;;5074870;28;20099;-72
2021/08/18 10:52:31;;;;;;;3.65;2.65;;;;;;;;;;5074639;28;20108;-71
2021/08/18 10:55:16;;;;;;;3.35;2.40;;;;;;;;;;5074220;28;20020;-70
2021/08/18 10:57:50;;;;;;;4.07;2.90;;;;;;;;;;5075382;28;20025;-71
2021/08/18 11:00:17;;;;;;;2.60;2.38;;;;;;;;;;5074716;28;20017;-71
2021/08/18 11:02:48;;;;;;;3.20;2.28;;;;;;;;;;5074731;28;20071;-71
2021/08/18 11:05:14;;;;;;;3.25;2.58;;;;;;;;;;5072951;28;20052;-72
2021/08/18 11:07:59;;;;;;;3.08;2.42;;;;;;;;;;5076559;28;20438;-71
2021/08/18 11:10:25;;;;;;;2.93;2.20;;;;;;;;;;5074881;28;20032;-71
2021/08/18 11:12:55;;;;;;;2.95;2.40;;;;;;;;;;5074313;28;20595;-69
2021/08/18 11:15:21;;;;;;;4.90;2.25;;;;;;;;;;5074608;28;20035;-71
2021/08/18 11:17:51;;;;;;;2.88;2.35;;;;;;;;;;5074600;28;20032;-69
2021/08/18 11:20:19;;;;;;;3.63;2.30;;;;;;;;;;5074652;28;20467;-71
2021/08/18 11:22:45;;;;;;;6.20;2.60;;;;;;;;;;5074704;28;20032;-72
2021/08/18 11:25:17;;;;;;;3.67;2.40;;;;;;;;;;5074411;28;20048;-71
2021/08/18 11:27:46;;;;;;;3.28;2.92;;;;;;;;;;5074763;28;20078;-71
2021/08/18 11:30:13;;;;;;;2.97;2.60;;;;;;;;;;5074046;28;20055;-71
2021/08/18 11:32:39;;;;;;;3.17;2.47;;;;;;;;;;5073673;28;20483;-71
2021/08/18 11:35:05;;;;;;;4.53;2.63;;;;;;;;;;5073579;28;20036;-71
2021/08/18 11:37:32;;;;;;;4.35;2.50;;;;;;;;;;5073330;28;20079;-71
2021/08/18 11:39:59;;;;;;;3.67;2.70;;;;;;;;;;5073825;28;20016;-73
2021/08/18 11:42:26;;;;;;;3.38;2.60;;;;;;;;;;5073621;28;20024;-70
2021/08/18 11:45:05;;;;;;;3.05;2.53;;;;;;;;;;5073558;28;20024;-72
2021/08/18 11:47:35;;;;;;;4.03;2.60;;;;;;;;;;5073564;28;20035;-71
2021/08/18 11:50:04;;;;;;;5.35;2.58;;;;;;;;;;5073228;28;20025;-71
2021/08/18 11:52:31;;;;;;;4.55;2.70;;;;;;;;;;5073637;28;20024;-71
2021/08/18 11:54:58;;;;;;;3.53;2.83;;;;;;;;;;5074030;28;20036;-70
2021/08/18 11:57:24;;;;;;;2.70;2.25;;;;;;;;;;5073027;28;20024;-72
2021/08/18 11:59:51;;;;;;;3.65;2.75;;;;;;;;;;5073429;28;20100;-74
2021/08/18 12:02:17;;;;;;;4.47;3.60;;;;;;;;;;5074711;28;20020;-70
2021/08/18 12:04:44;;;;;;;3.80;3.20;;;;;;;;;;5074088;28;20158;-69
2021/08/18 12:07:20;;;;;;;4.68;3.72;;;;;;;;;;5074387;28;20020;-72
2021/08/18 12:09:47;;;;;;;4.45;3.00;;;;;;;;;;5074369;28;20034;-72
2021/08/18 12:12:15;;;;;;;4.05;3.00;;;;;;;;;;5072318;28;20445;-71
2021/08/18 12:14:42;;;;;;;3.97;3.17;;;;;;;;;;5073789;28;20085;-71
2021/08/18 12:17:11;;;;;;;7.18;3.58;;;;;;;;;;5073622;28;21964;-71
2021/08/18 12:19:42;;;;;;;7.28;4.32;;;;;;;;;;5072136;28;20082;-71
2021/08/18 12:22:13;;;;;;;9.07;4.18;;;;;;;;;;5073559;28;20043;-73
2021/08/18 12:24:40;;;;;;;5.40;3.22;;;;;;;;;;5073282;28;20012;-71
2021/08/18 12:27:07;;;;;;;4.57;3.20;;;;;;;;;;5072696;28;20036;-72
2021/08/18 12:29:34;;;;;;;4.63;3.65;;;;;;;;;;5072707;28;20031;-73
2021/08/18 12:32:10;;;;;;;5.05;3.35;;;;;;;;;;5072908;28;20052;-70
2021/08/18 12:34:56;;;;;;;4.32;3.25;;;;;;;;;;5073102;28;20017;-68
2021/08/18 12:37:23;;;;;;;5.53;3.20;;;;;;;;;;5073231;28;20025;-70
2021/08/18 12:39:55;;;;;;;4.78;3.10;;;;;;;;;;5072605;28;20024;-71
2021/08/18 12:42:32;;;;;;;4.70;3.25;;;;;;;;;;5074277;28;20056;-72
2021/08/18 12:45:18;;;;;;;4.43;3.10;;;;;;;;;;5076397;28;20020;-71
2021/08/18 12:47:46;;;;;;;5.10;3.20;;;;;;;;;;5076850;28;20035;-71
2021/08/18 12:50:14;;;;;;;5.72;3.38;;;;;;;;;;5076250;28;20387;-70
2021/08/18 12:52:40;;;;;;;6.63;3.45;;;;;;;;;;5076410;28;20035;-71
2021/08/18 12:55:07;;;;;;;6.00;3.88;;;;;;;;;;5075507;28;20058;-71
2021/08/18 12:57:35;;;;;;;3.78;2.90;;;;;;;;;;5076315;28;20039;-70
2021/08/18 13:00:01;;;;;;;5.57;4.03;;;;;;;;;;5077516;28;20024;-72
2021/08/18 13:02:27;;;;;;;5.43;3.40;;;;;;;;;;5076221;28;20025;-70
2021/08/18 13:04:53;;;;;;;5.10;3.53;;;;;;;;;;5076885;28;20047;-71
2021/08/18 13:07:19;;;;;;;4.82;3.50;;;;;;;;;;5076307;28;20024;-72
2021/08/18 13:09:45;;;;;;;3.92;2.95;;;;;;;;;;5076722;28;20029;-71
2021/08/18 13:12:13;;;;;;;5.35;3.20;;;;;;;;;;5077260;28;20426;-70
2021/08/18 13:14:39;;;;;;;4.72;3.30;;;;;;;;;;5076211;28;20170;-71
2021/08/18 13:17:05;;;;;;;5.95;3.95;;;;;;;;;;5076490;28;20024;-71
2021/08/18 13:19:31;;;;;;;6.15;3.78;;;;;;;;;;5075613;28;20029;-72
2021/08/18 13:21:57;;;;;;;4.43;3.40;;;;;;;;;;5076231;28;20433;-70
2021/08/18 13:24:23;;;;;;;5.32;3.90;;;;;;;;;;5076110;28;20051;-71
2021/08/18 13:26:49;;;;;;;5.20;3.83;;;;;;;;;;5076596;28;20020;-71
2021/08/18 13:29:15;;;;;;;5.20;3.80;;;;;;;;;;5075033;28;20094;-71
2021/08/18 13:31:42;;;;;;;4.53;3.30;;;;;;;;;;5076638;28;20059;-72
2021/08/18 13:34:08;;;;;;;5.15;3.35;;;;;;;;;;5076634;28;20055;-72
2021/08/18 13:36:35;;;;;;;3.60;2.72;;;;;;;;;;5076652;28;20391;-72
2021/08/18 13:39:02;;;;;;;4.68;2.53;;;;;;;;;;5080430;28;20037;-73
2021/08/18 13:41:28;;;;;;;4.07;2.70;;;;;;;;;;5075692;28;20017;-71
2021/08/18 13:43:55;;;;;;;3.75;2.70;;;;;;;;;;5076555;28;20468;-71
2021/08/18 13:46:21;;;;;;;2.90;2.60;;;;;;;;;;5076919;28;20025;-73
2021/08/18 13:48:48;;;;;;;4.40;2.65;;;;;;;;;;5077239;28;20415;-72
2021/08/18 13:51:14;;;;;;;3.25;2.60;;;;;;;;;;5076247;28;20471;-74
2021/08/18 13:53:40;;;;;;;3.08;2.67;;;;;;;;;;5075390;28;20108;-72
2021/08/18 13:56:06;;;;;;;3.88;2.63;;;;;;;;;;5075962;28;20096;-73
2021/08/18 13:58:33;;;;;;;3.10;2.55;;;;;;;;;;5076530;28;20040;-72
2021/08/18 14:00:59;;;;;;;3.15;2.33;;;;;;;;;;5075349;28;20031;-70
2021/08/18 14:03:28;;;;;;;4.38;2.85;;;;;;;;;;5075604;28;20056;-71
2021/08/18 14:05:54;;;;;;;3.17;2.00;;;;;;;;;;5074660;28;20032;-71
2021/08/18 14:08:23;;;;;;;2.30;2.10;;;;;;;;;;5076009;28;20507;-70
2021/08/18 14:10:50;;;;;;;2.80;2.10;;;;;;;;;;5075208;28;20020;-73
2021/08/18 14:13:16;;;;;;;2.22;1.98;;;;;;;;;;5075308;28;20028;-70
2021/08/18 14:15:43;;;;;;;3.03;2.00;;;;;;;;;;5075312;28;20029;-71
2021/08/18 14:18:09;;;;;;;2.75;1.90;;;;;;;;;;5074766;28;20498;-71
2021/08/18 14:20:35;;;;;;;2.15;1.88;;;;;;;;;;5075041;28;20062;-71
2021/08/18 14:23:01;;;;;;;1.90;1.80;;;;;;;;;;5075459;28;20028;-71
2021/08/18 14:25:27;;;;;;;3.08;2.10;;;;;;;;;;5074798;28;20504;-70
2021/08/18 14:27:53;;;;;;;3.42;1.98;;;;;;;;;;5074905;28;20031;-71
2021/08/18 14:30:20;;;;;;;1.90;1.70;;;;;;;;;;5075170;28;20021;-71
2021/08/18 14:32:46;;;;;;;2.15;1.95;;;;;;;;;;5074628;28;20032;-72
2021/08/18 14:35:13;;;;;;;6.43;2.45;;;;;;;;;;5074610;28;20494;-73
2021/08/18 14:37:43;;;;;;;3.05;2.42;;;;;;;;;;5074863;28;20063;-71
2021/08/18 14:40:10;;;;;;;2.28;2.08;;;;;;;;;;5074501;28;20032;-70
2021/08/18 14:42:37;;;;;;;2.50;2.08;;;;;;;;;;5074986;28;20444;-71
2021/08/18 14:45:07;;;;;;;3.38;2.28;;;;;;;;;;5074671;28;20028;-72
2021/08/18 14:47:33;;;;;;;2.75;2.05;;;;;;;;;;5073960;28;20029;-71